Silver Springs, Florida
Current Conditions -  °F | °C
As of 12:50 PM on Saturday 25 Oct 2014 (Local Time) from KOCF Reporting Station
Clear Clear  
Wind Chill: 75°   Ceiling: Unl
Heat Index: 75°   Visibility: 10mi
Dew Point: 46°   Wind: 9mph
Humidity: 36%   Direction: 360°N
Pressure: 30.02"   Gusts: NA
Location:  29.22°N, 82.06°W
Report Text: KOCF 251650Z 36008KT 10SM CLR 24/08 A3002
Loading
Personal Weather Stations






























Interactive Weather Map
Tropical Storm Tracking
New forecast layout! Learn more

10-Day Weather Forecast

Advertisements
Track Severe Weather on mobile